Pskov, Russia
Current Conditions -  °F | °C
As of 10:50 PM on Monday 26 Jan 2015 (Local Time) from EETU Reporting Station
Overcast Overcast  
Wind Chill: 21°   Ceiling: 3300
Heat Index: 27°   Visibility: 6mi
Dew Point: 25°   Wind: 5mph
Humidity: 93%   Direction: 170°S
Pressure: 29.97"   Gusts: NA
Location:  57.83°N, 28.33°E
Report Text: EETU 261950Z AUTO 17004KT 9999 OVC033/// M03/M04 Q1015
Loading
Personal Weather Stations






























Interactive Weather Map New forecast layout! Learn more

10-Day Weather Forecast

Advertisements
Track Severe Weather on mobile